sensor_id;sensor_type;location;lat;lon;timestamp;temperature;humidity
27667;DHT22;15074;50.940;5.282;2023-04-06T00:00:52;3.60;99.90
27667;DHT22;15074;50.940;5.282;2023-04-06T00:03:18;3.60;99.90
27667;DHT22;15074;50.940;5.282;2023-04-06T00:05:44;3.50;99.90
27667;DHT22;15074;50.940;5.282;2023-04-06T00:08:10;3.40;99.90
27667;DHT22;15074;50.940;5.282;2023-04-06T00:10:36;3.40;99.90
27667;DHT22;15074;50.940;5.282;2023-04-06T00:13:02;3.30;99.90
27667;DHT22;15074;50.940;5.282;2023-04-06T00:15:28;3.30;99.90
27667;DHT22;15074;50.940;5.282;2023-04-06T00:17:53;3.20;99.90
27667;DHT22;15074;50.940;5.282;2023-04-06T00:20:19;3.10;99.90
27667;DHT22;15074;50.940;5.282;2023-04-06T00:22:45;3.10;99.90
27667;DHT22;15074;50.940;5.282;2023-04-06T00:25:11;3.30;99.90
27667;DHT22;15074;50.940;5.282;2023-04-06T00:27:37;3.60;99.90
27667;DHT22;15074;50.940;5.282;2023-04-06T00:30:07;3.70;99.90
27667;DHT22;15074;50.940;5.282;2023-04-06T00:32:34;3.70;99.90
27667;DHT22;15074;50.940;5.282;2023-04-06T00:35:02;3.70;99.90
27667;DHT22;15074;50.940;5.282;2023-04-06T00:37:28;3.60;99.90
27667;DHT22;15074;50.940;5.282;2023-04-06T00:39:54;3.50;99.90
27667;DHT22;15074;50.940;5.282;2023-04-06T00:42:21;3.30;99.90
27667;DHT22;15074;50.940;5.282;2023-04-06T00:44:55;3.30;99.90
27667;DHT22;15074;50.940;5.282;2023-04-06T00:47:22;3.20;99.90
27667;DHT22;15074;50.940;5.282;2023-04-06T00:49:48;3.20;99.90
27667;DHT22;15074;50.940;5.282;2023-04-06T00:52:14;3.20;99.90
27667;DHT22;15074;50.940;5.282;2023-04-06T00:54:41;3.10;99.90
27667;DHT22;15074;50.940;5.282;2023-04-06T00:57:06;3.00;99.90
27667;DHT22;15074;50.940;5.282;2023-04-06T00:59:32;3.00;99.90
27667;DHT22;15074;50.940;5.282;2023-04-06T01:01:58;3.00;99.90
27667;DHT22;15074;50.940;5.282;2023-04-06T01:04:24;3.00;99.90
27667;DHT22;15074;50.940;5.282;2023-04-06T01:06:50;3.00;99.90
27667;DHT22;15074;50.940;5.282;2023-04-06T01:09:17;2.90;99.90
27667;DHT22;15074;50.940;5.282;2023-04-06T01:11:43;2.80;99.90
27667;DHT22;15074;50.940;5.282;2023-04-06T01:14:09;2.70;99.90
27667;DHT22;15074;50.940;5.282;2023-04-06T01:16:35;2.70;99.90
27667;DHT22;15074;50.940;5.282;2023-04-06T01:19:06;2.60;99.90
27667;DHT22;15074;50.940;5.282;2023-04-06T01:21:32;2.60;99.90
27667;DHT22;15074;50.940;5.282;2023-04-06T01:23:57;2.60;99.90
27667;DHT22;15074;50.940;5.282;2023-04-06T01:26:23;2.60;99.90
27667;DHT22;15074;50.940;5.282;2023-04-06T01:28:49;2.60;99.90
27667;DHT22;15074;50.940;5.282;2023-04-06T01:31:15;2.60;99.90
27667;DHT22;15074;50.940;5.282;2023-04-06T01:33:41;2.60;99.90
27667;DHT22;15074;50.940;5.282;2023-04-06T01:36:07;2.60;99.90
27667;DHT22;15074;50.940;5.282;2023-04-06T01:38:32;2.60;99.90
27667;DHT22;15074;50.940;5.282;2023-04-06T01:40:58;2.70;99.90
27667;DHT22;15074;50.940;5.282;2023-04-06T01:43:24;2.80;99.90
27667;DHT22;15074;50.940;5.282;2023-04-06T01:45:49;2.80;99.90
27667;DHT22;15074;50.940;5.282;2023-04-06T01:48:16;2.80;99.90
27667;DHT22;15074;50.940;5.282;2023-04-06T01:50:42;2.70;99.90
27667;DHT22;15074;50.940;5.282;2023-04-06T01:53:07;2.70;99.90
27667;DHT22;15074;50.940;5.282;2023-04-06T01:55:33;2.70;99.90
27667;DHT22;15074;50.940;5.282;2023-04-06T01:57:59;2.70;99.90
27667;DHT22;15074;50.940;5.282;2023-04-06T02:00:24;2.70;99.90
27667;DHT22;15074;50.940;5.282;2023-04-06T02:02:50;2.70;99.90
27667;DHT22;15074;50.940;5.282;2023-04-06T02:05:16;2.80;99.90
27667;DHT22;15074;50.940;5.282;2023-04-06T02:07:41;2.90;99.90
27667;DHT22;15074;50.940;5.282;2023-04-06T02:10:12;2.80;99.90
27667;DHT22;15074;50.940;5.282;2023-04-06T02:12:38;2.90;99.90
27667;DHT22;15074;50.940;5.282;2023-04-06T02:15:04;2.90;99.90
27667;DHT22;15074;50.940;5.282;2023-04-06T02:17:30;3.00;99.90
27667;DHT22;15074;50.940;5.282;2023-04-06T02:19:56;3.10;99.90
27667;DHT22;15074;50.940;5.282;2023-04-06T02:22:21;3.20;99.90
27667;DHT22;15074;50.940;5.282;2023-04-06T02:24:47;3.20;99.90
27667;DHT22;15074;50.940;5.282;2023-04-06T02:27:14;3.20;99.90
27667;DHT22;15074;50.940;5.282;2023-04-06T02:29:40;3.30;99.90
27667;DHT22;15074;50.940;5.282;2023-04-06T02:32:06;3.50;99.90
27667;DHT22;15074;50.940;5.282;2023-04-06T02:34:32;3.60;99.90
27667;DHT22;15074;50.940;5.282;2023-04-06T02:36:58;3.70;99.90
27667;DHT22;15074;50.940;5.282;2023-04-06T02:39:23;3.90;99.90
27667;DHT22;15074;50.940;5.282;2023-04-06T02:41:49;3.90;99.90
27667;DHT22;15074;50.940;5.282;2023-04-06T02:44:15;3.90;99.90
27667;DHT22;15074;50.940;5.282;2023-04-06T02:46:41;3.90;99.90
27667;DHT22;15074;50.940;5.282;2023-04-06T02:49:07;4.00;99.90
27667;DHT22;15074;50.940;5.282;2023-04-06T02:51:33;4.00;99.90
27667;DHT22;15074;50.940;5.282;2023-04-06T02:53:59;4.00;99.90
27667;DHT22;15074;50.940;5.282;2023-04-06T02:56:25;3.90;99.90
27667;DHT22;15074;50.940;5.282;2023-04-06T02:58:52;3.80;99.90
27667;DHT22;15074;50.940;5.282;2023-04-06T03:01:17;3.90;99.90
27667;DHT22;15074;50.940;5.282;2023-04-06T03:03:43;3.90;99.90
27667;DHT22;15074;50.940;5.282;2023-04-06T03:06:09;4.00;99.90
27667;DHT22;15074;50.940;5.282;2023-04-06T03:08:35;4.00;99.90
27667;DHT22;15074;50.940;5.282;2023-04-06T03:11:00;3.90;99.90
27667;DHT22;15074;50.940;5.282;2023-04-06T03:13:26;4.00;99.90
27667;DHT22;15074;50.940;5.282;2023-04-06T03:15:52;4.00;99.90
27667;DHT22;15074;50.940;5.282;2023-04-06T03:18:21;4.00;99.90
27667;DHT22;15074;50.940;5.282;2023-04-06T03:20:48;4.00;99.90
27667;DHT22;15074;50.940;5.282;2023-04-06T03:23:14;3.90;99.90
27667;DHT22;15074;50.940;5.282;2023-04-06T03:25:39;3.80;99.90
27667;DHT22;15074;50.940;5.282;2023-04-06T03:28:05;3.80;99.90
27667;DHT22;15074;50.940;5.282;2023-04-06T03:30:31;3.80;99.90
27667;DHT22;15074;50.940;5.282;2023-04-06T03:32:57;3.90;99.90
27667;DHT22;15074;50.940;5.282;2023-04-06T03:35:22;3.90;99.90
27667;DHT22;15074;50.940;5.282;2023-04-06T03:37:48;3.90;99.90
27667;DHT22;15074;50.940;5.282;2023-04-06T03:40:14;4.00;99.90
27667;DHT22;15074;50.940;5.282;2023-04-06T03:42:39;4.00;99.90
27667;DHT22;15074;50.940;5.282;2023-04-06T03:45:05;4.00;99.90
27667;DHT22;15074;50.940;5.282;2023-04-06T03:47:31;4.00;99.90
27667;DHT22;15074;50.940;5.282;2023-04-06T03:49:57;3.90;99.90
27667;DHT22;15074;50.940;5.282;2023-04-06T03:52:23;3.90;99.90
27667;DHT22;15074;50.940;5.282;2023-04-06T03:54:49;3.90;99.90
27667;DHT22;15074;50.940;5.282;2023-04-06T03:57:15;3.90;99.90
27667;DHT22;15074;50.940;5.282;2023-04-06T03:59:40;3.80;99.90
27667;DHT22;15074;50.940;5.282;2023-04-06T04:02:06;3.80;99.90
27667;DHT22;15074;50.940;5.282;2023-04-06T04:04:32;3.90;99.90
27667;DHT22;15074;50.940;5.282;2023-04-06T04:06:57;3.80;99.90
27667;DHT22;15074;50.940;5.282;2023-04-06T04:09:23;3.80;99.90
27667;DHT22;15074;50.940;5.282;2023-04-06T04:11:49;3.70;99.90
27667;DHT22;15074;50.940;5.282;2023-04-06T04:14:15;3.80;99.90
27667;DHT22;15074;50.940;5.282;2023-04-06T04:16:40;3.70;99.90
27667;DHT22;15074;50.940;5.282;2023-04-06T04:19:07;3.70;99.90
27667;DHT22;15074;50.940;5.282;2023-04-06T04:21:33;3.70;99.90
27667;DHT22;15074;50.940;5.282;2023-04-06T04:23:58;3.70;99.90
27667;DHT22;15074;50.940;5.282;2023-04-06T04:26:24;3.70;99.90
27667;DHT22;15074;50.940;5.282;2023-04-06T04:28:50;3.70;99.90
27667;DHT22;15074;50.940;5.282;2023-04-06T04:31:16;3.70;99.90
27667;DHT22;15074;50.940;5.282;2023-04-06T04:33:43;3.80;99.90
27667;DHT22;15074;50.940;5.282;2023-04-06T04:36:09;3.80;99.90
27667;DHT22;15074;50.940;5.282;2023-04-06T04:38:35;3.90;99.90
27667;DHT22;15074;50.940;5.282;2023-04-06T04:41:01;3.90;99.90
27667;DHT22;15074;50.940;5.282;2023-04-06T04:43:27;3.90;99.90
27667;DHT22;15074;50.940;5.282;2023-04-06T04:45:52;3.90;99.90
27667;DHT22;15074;50.940;5.282;2023-04-06T04:48:18;4.00;99.90
27667;DHT22;15074;50.940;5.282;2023-04-06T04:50:44;4.00;99.90
27667;DHT22;15074;50.940;5.282;2023-04-06T04:53:09;4.00;99.90
27667;DHT22;15074;50.940;5.282;2023-04-06T04:55:35;4.00;99.90
27667;DHT22;15074;50.940;5.282;2023-04-06T04:58:01;4.10;99.90
27667;DHT22;15074;50.940;5.282;2023-04-06T05:00:28;4.20;99.90
27667;DHT22;15074;50.940;5.282;2023-04-06T05:02:54;4.20;99.90
27667;DHT22;15074;50.940;5.282;2023-04-06T05:05:19;4.20;99.90
27667;DHT22;15074;50.940;5.282;2023-04-06T05:07:45;4.30;99.90
27667;DHT22;15074;50.940;5.282;2023-04-06T05:10:11;4.20;99.90
27667;DHT22;15074;50.940;5.282;2023-04-06T05:12:37;4.30;99.90
27667;DHT22;15074;50.940;5.282;2023-04-06T05:15:03;4.30;99.90
27667;DHT22;15074;50.940;5.282;2023-04-06T05:17:29;4.30;99.90
27667;DHT22;15074;50.940;5.282;2023-04-06T05:19:55;4.30;99.90
27667;DHT22;15074;50.940;5.282;2023-04-06T05:22:21;4.40;99.90
27667;DHT22;15074;50.940;5.282;2023-04-06T05:24:47;4.40;99.90
27667;DHT22;15074;50.940;5.282;2023-04-06T05:27:12;4.50;99.90
27667;DHT22;15074;50.940;5.282;2023-04-06T05:29:38;4.60;99.90
27667;DHT22;15074;50.940;5.282;2023-04-06T05:32:04;4.70;99.90
27667;DHT22;15074;50.940;5.282;2023-04-06T05:34:30;4.70;99.90
27667;DHT22;15074;50.940;5.282;2023-04-06T05:36:56;4.70;99.90
27667;DHT22;15074;50.940;5.282;2023-04-06T05:39:22;4.70;99.90
27667;DHT22;15074;50.940;5.282;2023-04-06T05:41:48;4.80;99.90
27667;DHT22;15074;50.940;5.282;2023-04-06T05:44:14;4.80;99.90
27667;DHT22;15074;50.940;5.282;2023-04-06T05:46:40;4.90;99.90
27667;DHT22;15074;50.940;5.282;2023-04-06T05:49:05;4.90;99.90
27667;DHT22;15074;50.940;5.282;2023-04-06T05:51:31;4.90;99.90
27667;DHT22;15074;50.940;5.282;2023-04-06T05:53:57;5.00;99.90
27667;DHT22;15074;50.940;5.282;2023-04-06T05:56:23;4.90;99.90
27667;DHT22;15074;50.940;5.282;2023-04-06T05:58:49;5.00;99.90
27667;DHT22;15074;50.940;5.282;2023-04-06T06:01:14;5.00;99.90
27667;DHT22;15074;50.940;5.282;2023-04-06T06:03:41;5.00;99.90
27667;DHT22;15074;50.940;5.282;2023-04-06T06:06:06;5.10;99.90
27667;DHT22;15074;50.940;5.282;2023-04-06T06:08:32;5.10;99.90
27667;DHT22;15074;50.940;5.282;2023-04-06T06:10:58;5.20;99.90
27667;DHT22;15074;50.940;5.282;2023-04-06T06:13:23;5.20;99.90
27667;DHT22;15074;50.940;5.282;2023-04-06T06:15:49;5.20;99.90
27667;DHT22;15074;50.940;5.282;2023-04-06T06:18:15;5.30;99.90
27667;DHT22;15074;50.940;5.282;2023-04-06T06:20:41;5.20;99.90
27667;DHT22;15074;50.940;5.282;2023-04-06T06:23:07;5.10;99.90
27667;DHT22;15074;50.940;5.282;2023-04-06T06:25:33;5.20;99.90
27667;DHT22;15074;50.940;5.282;2023-04-06T06:27:59;5.20;99.90
27667;DHT22;15074;50.940;5.282;2023-04-06T06:30:25;5.30;99.90
27667;DHT22;15074;50.940;5.282;2023-04-06T06:32:57;5.30;99.90
27667;DHT22;15074;50.940;5.282;2023-04-06T06:35:23;5.40;99.90
27667;DHT22;15074;50.940;5.282;2023-04-06T06:37:49;5.40;99.90
27667;DHT22;15074;50.940;5.282;2023-04-06T06:40:15;5.50;99.90
27667;DHT22;15074;50.940;5.282;2023-04-06T06:42:42;5.60;99.90
27667;DHT22;15074;50.940;5.282;2023-04-06T06:45:08;5.60;99.90
27667;DHT22;15074;50.940;5.282;2023-04-06T06:47:34;5.70;99.90
27667;DHT22;15074;50.940;5.282;2023-04-06T06:50:00;5.90;99.90
27667;DHT22;15074;50.940;5.282;2023-04-06T06:52:26;6.10;99.90
27667;DHT22;15074;50.940;5.282;2023-04-06T06:54:54;6.10;99.90
27667;DHT22;15074;50.940;5.282;2023-04-06T06:57:19;6.20;99.90
27667;DHT22;15074;50.940;5.282;2023-04-06T06:59:45;6.30;99.90
27667;DHT22;15074;50.940;5.282;2023-04-06T07:02:11;6.30;99.90
27667;DHT22;15074;50.940;5.282;2023-04-06T07:04:36;6.40;99.90
27667;DHT22;15074;50.940;5.282;2023-04-06T07:07:02;6.30;99.90
27667;DHT22;15074;50.940;5.282;2023-04-06T07:09:28;6.50;99.90
27667;DHT22;15074;50.940;5.282;2023-04-06T07:11:54;6.60;99.90
27667;DHT22;15074;50.940;5.282;2023-04-06T07:14:21;6.90;99.90
27667;DHT22;15074;50.940;5.282;2023-04-06T07:16:47;7.10;99.90
27667;DHT22;15074;50.940;5.282;2023-04-06T07:19:14;7.40;99.90
27667;DHT22;15074;50.940;5.282;2023-04-06T07:21:39;7.60;99.90
27667;DHT22;15074;50.940;5.282;2023-04-06T07:24:05;7.80;99.90
27667;DHT22;15074;50.940;5.282;2023-04-06T07:26:31;8.20;99.90
27667;DHT22;15074;50.940;5.282;2023-04-06T07:28:57;8.60;99.90
27667;DHT22;15074;50.940;5.282;2023-04-06T07:31:23;8.60;99.90
27667;DHT22;15074;50.940;5.282;2023-04-06T07:33:48;8.60;99.90
27667;DHT22;15074;50.940;5.282;2023-04-06T07:36:15;8.10;99.90
27667;DHT22;15074;50.940;5.282;2023-04-06T07:38:41;8.20;99.90
27667;DHT22;15074;50.940;5.282;2023-04-06T07:41:06;8.00;99.90
27667;DHT22;15074;50.940;5.282;2023-04-06T07:43:32;8.00;99.90
27667;DHT22;15074;50.940;5.282;2023-04-06T07:45:58;7.90;99.90
27667;DHT22;15074;50.940;5.282;2023-04-06T07:48:25;7.80;99.90
27667;DHT22;15074;50.940;5.282;2023-04-06T07:50:50;7.90;99.90
27667;DHT22;15074;50.940;5.282;2023-04-06T07:53:16;7.90;99.90
27667;DHT22;15074;50.940;5.282;2023-04-06T07:55:42;7.90;99.90
27667;DHT22;15074;50.940;5.282;2023-04-06T07:58:07;8.00;99.90
27667;DHT22;15074;50.940;5.282;2023-04-06T08:00:33;8.00;99.90
27667;DHT22;15074;50.940;5.282;2023-04-06T08:02:59;8.10;99.90
27667;DHT22;15074;50.940;5.282;2023-04-06T08:05:25;8.10;99.90
27667;DHT22;15074;50.940;5.282;2023-04-06T08:07:50;8.10;99.90
27667;DHT22;15074;50.940;5.282;2023-04-06T08:10:16;8.20;99.90
27667;DHT22;15074;50.940;5.282;2023-04-06T08:12:42;8.20;99.90
27667;DHT22;15074;50.940;5.282;2023-04-06T08:15:07;8.30;99.90
27667;DHT22;15074;50.940;5.282;2023-04-06T08:17:33;8.50;99.90
27667;DHT22;15074;50.940;5.282;2023-04-06T08:19:59;8.60;99.90
27667;DHT22;15074;50.940;5.282;2023-04-06T08:22:26;8.60;99.90
27667;DHT22;15074;50.940;5.282;2023-04-06T08:24:51;8.70;99.90
27667;DHT22;15074;50.940;5.282;2023-04-06T08:27:17;9.00;99.90
27667;DHT22;15074;50.940;5.282;2023-04-06T08:29:43;9.40;99.90
27667;DHT22;15074;50.940;5.282;2023-04-06T08:32:08;9.60;99.90
27667;DHT22;15074;50.940;5.282;2023-04-06T08:34:34;9.80;99.90
27667;DHT22;15074;50.940;5.282;2023-04-06T08:37:00;9.70;99.90
27667;DHT22;15074;50.940;5.282;2023-04-06T08:39:26;9.80;99.90
27667;DHT22;15074;50.940;5.282;2023-04-06T08:41:53;9.90;99.90
27667;DHT22;15074;50.940;5.282;2023-04-06T08:44:22;9.90;99.90
27667;DHT22;15074;50.940;5.282;2023-04-06T08:46:48;9.60;99.90
27667;DHT22;15074;50.940;5.282;2023-04-06T08:49:16;9.50;99.90
27667;DHT22;15074;50.940;5.282;2023-04-06T08:51:42;9.60;99.90
27667;DHT22;15074;50.940;5.282;2023-04-06T08:54:07;9.70;99.90
27667;DHT22;15074;50.940;5.282;2023-04-06T08:56:37;10.00;99.90
27667;DHT22;15074;50.940;5.282;2023-04-06T08:59:04;10.00;99.90
27667;DHT22;15074;50.940;5.282;2023-04-06T09:01:33;10.00;99.90
27667;DHT22;15074;50.940;5.282;2023-04-06T09:04:00;10.10;99.90
27667;DHT22;15074;50.940;5.282;2023-04-06T09:06:26;10.10;99.90
27667;DHT22;15074;50.940;5.282;2023-04-06T09:08:53;10.00;99.90
27667;DHT22;15074;50.940;5.282;2023-04-06T09:11:20;9.90;99.90
27667;DHT22;15074;50.940;5.282;2023-04-06T09:13:52;10.10;99.90
27667;DHT22;15074;50.940;5.282;2023-04-06T09:16:19;9.90;99.90
27667;DHT22;15074;50.940;5.282;2023-04-06T09:18:45;10.00;99.90
27667;DHT22;15074;50.940;5.282;2023-04-06T09:21:11;9.90;99.90
27667;DHT22;15074;50.940;5.282;2023-04-06T09:23:38;9.90;99.90
27667;DHT22;15074;50.940;5.282;2023-04-06T09:26:07;9.90;99.90
27667;DHT22;15074;50.940;5.282;2023-04-06T09:31:15;9.80;99.90
27667;DHT22;15074;50.940;5.282;2023-04-06T09:33:43;9.90;99.90
27667;DHT22;15074;50.940;5.282;2023-04-06T09:36:09;10.00;99.90
27667;DHT22;15074;50.940;5.282;2023-04-06T09:38:53;9.90;99.90
27667;DHT22;15074;50.940;5.282;2023-04-06T09:41:35;10.00;99.90
27667;DHT22;15074;50.940;5.282;2023-04-06T09:44:04;9.70;99.90
27667;DHT22;15074;50.940;5.282;2023-04-06T09:46:32;9.50;99.90
27667;DHT22;15074;50.940;5.282;2023-04-06T09:49:01;9.20;99.90
27667;DHT22;15074;50.940;5.282;2023-04-06T09:51:31;9.00;99.90
27667;DHT22;15074;50.940;5.282;2023-04-06T09:53:57;8.80;99.90
27667;DHT22;15074;50.940;5.282;2023-04-06T09:56:39;8.80;99.90
27667;DHT22;15074;50.940;5.282;2023-04-06T09:59:12;8.80;99.90
27667;DHT22;15074;50.940;5.282;2023-04-06T10:01:39;8.80;99.90
27667;DHT22;15074;50.940;5.282;2023-04-06T10:04:27;8.90;99.90
27667;DHT22;15074;50.940;5.282;2023-04-06T10:06:55;8.80;99.90
27667;DHT22;15074;50.940;5.282;2023-04-06T10:09:25;8.70;99.90
27667;DHT22;15074;50.940;5.282;2023-04-06T10:11:54;8.70;99.90
27667;DHT22;15074;50.940;5.282;2023-04-06T10:14:20;8.70;99.90
27667;DHT22;15074;50.940;5.282;2023-04-06T10:16:48;8.60;99.90
27667;DHT22;15074;50.940;5.282;2023-04-06T10:19:21;8.60;99.90
27667;DHT22;15074;50.940;5.282;2023-04-06T10:21:51;8.60;99.90
27667;DHT22;15074;50.940;5.282;2023-04-06T10:24:19;8.50;99.90
27667;DHT22;15074;50.940;5.282;2023-04-06T10:27:03;8.60;99.90
27667;DHT22;15074;50.940;5.282;2023-04-06T10:29:44;8.60;99.90
27667;DHT22;15074;50.940;5.282;2023-04-06T10:32:10;8.60;99.90
27667;DHT22;15074;50.940;5.282;2023-04-06T10:34:36;8.50;99.90
27667;DHT22;15074;50.940;5.282;2023-04-06T10:37:13;8.50;99.90
27667;DHT22;15074;50.940;5.282;2023-04-06T10:39:54;8.50;99.90
27667;DHT22;15074;50.940;5.282;2023-04-06T10:42:39;8.60;99.90
27667;DHT22;15074;50.940;5.282;2023-04-06T10:45:18;8.60;99.90
27667;DHT22;15074;50.940;5.282;2023-04-06T10:47:45;8.50;99.90
27667;DHT22;15074;50.940;5.282;2023-04-06T10:50:14;8.40;99.90
27667;DHT22;15074;50.940;5.282;2023-04-06T10:52:40;8.40;99.90
27667;DHT22;15074;50.940;5.282;2023-04-06T10:55:07;8.40;99.90
27667;DHT22;15074;50.940;5.282;2023-04-06T10:57:34;8.50;99.90
27667;DHT22;15074;50.940;5.282;2023-04-06T11:00:03;8.50;99.90
27667;DHT22;15074;50.940;5.282;2023-04-06T11:02:29;8.60;99.90
27667;DHT22;15074;50.940;5.282;2023-04-06T11:04:58;8.70;99.90
27667;DHT22;15074;50.940;5.282;2023-04-06T11:07:27;8.70;99.90
27667;DHT22;15074;50.940;5.282;2023-04-06T11:09:56;8.70;99.90
27667;DHT22;15074;50.940;5.282;2023-04-06T11:12:30;8.70;99.90
27667;DHT22;15074;50.940;5.282;2023-04-06T11:15:00;8.70;99.90
27667;DHT22;15074;50.940;5.282;2023-04-06T11:17:34;8.50;99.90
27667;DHT22;15074;50.940;5.282;2023-04-06T11:20:02;8.40;99.90
27667;DHT22;15074;50.940;5.282;2023-04-06T11:22:29;8.40;99.90
27667;DHT22;15074;50.940;5.282;2023-04-06T11:25:08;8.30;99.90
27667;DHT22;15074;50.940;5.282;2023-04-06T11:27:34;8.30;99.90
27667;DHT22;15074;50.940;5.282;2023-04-06T11:30:01;8.20;99.90
27667;DHT22;15074;50.940;5.282;2023-04-06T11:32:27;8.30;99.90
27667;DHT22;15074;50.940;5.282;2023-04-06T11:34:53;8.40;99.90
27667;DHT22;15074;50.940;5.282;2023-04-06T11:37:19;8.60;99.90
27667;DHT22;15074;50.940;5.282;2023-04-06T11:39:49;8.50;99.90
27667;DHT22;15074;50.940;5.282;2023-04-06T11:42:23;8.60;99.90
27667;DHT22;15074;50.940;5.282;2023-04-06T11:44:59;8.50;99.90
27667;DHT22;15074;50.940;5.282;2023-04-06T11:47:36;8.50;99.90
27667;DHT22;15074;50.940;5.282;2023-04-06T11:50:13;8.70;99.90
27667;DHT22;15074;50.940;5.282;2023-04-06T11:52:42;8.60;99.90
27667;DHT22;15074;50.940;5.282;2023-04-06T11:55:16;8.60;99.90
27667;DHT22;15074;50.940;5.282;2023-04-06T11:57:43;8.60;99.90
27667;DHT22;15074;50.940;5.282;2023-04-06T12:00:10;8.50;99.90
27667;DHT22;15074;50.940;5.282;2023-04-06T12:02:37;8.50;99.90
27667;DHT22;15074;50.940;5.282;2023-04-06T12:05:04;8.50;99.90
27667;DHT22;15074;50.940;5.282;2023-04-06T12:07:31;8.50;99.90
27667;DHT22;15074;50.940;5.282;2023-04-06T12:09:58;8.60;99.90
27667;DHT22;15074;50.940;5.282;2023-04-06T12:12:24;8.50;99.90
27667;DHT22;15074;50.940;5.282;2023-04-06T12:14:51;8.50;99.90
27667;DHT22;15074;50.940;5.282;2023-04-06T12:17:17;8.60;99.90
27667;DHT22;15074;50.940;5.282;2023-04-06T12:19:43;8.50;99.90
27667;DHT22;15074;50.940;5.282;2023-04-06T12:22:09;8.50;99.90
27667;DHT22;15074;50.940;5.282;2023-04-06T12:24:34;8.60;99.90
27667;DHT22;15074;50.940;5.282;2023-04-06T12:27:00;8.60;99.90
27667;DHT22;15074;50.940;5.282;2023-04-06T12:29:26;8.60;99.90
27667;DHT22;15074;50.940;5.282;2023-04-06T12:31:52;8.50;99.90
27667;DHT22;15074;50.940;5.282;2023-04-06T12:34:18;8.50;99.90
27667;DHT22;15074;50.940;5.282;2023-04-06T12:36:44;8.50;99.90
27667;DHT22;15074;50.940;5.282;2023-04-06T12:39:10;8.40;99.90
27667;DHT22;15074;50.940;5.282;2023-04-06T12:41:36;8.30;99.90
27667;DHT22;15074;50.940;5.282;2023-04-06T12:44:03;8.30;99.90
27667;DHT22;15074;50.940;5.282;2023-04-06T12:46:29;8.20;99.90
27667;DHT22;15074;50.940;5.282;2023-04-06T12:48:58;8.30;99.90
27667;DHT22;15074;50.940;5.282;2023-04-06T12:51:27;8.20;99.90
27667;DHT22;15074;50.940;5.282;2023-04-06T12:53:53;8.30;99.90
27667;DHT22;15074;50.940;5.282;2023-04-06T12:56:19;8.30;99.90
27667;DHT22;15074;50.940;5.282;2023-04-06T12:58:46;8.30;99.90
27667;DHT22;15074;50.940;5.282;2023-04-06T13:01:13;8.30;99.90
27667;DHT22;15074;50.940;5.282;2023-04-06T13:03:39;8.30;99.90
27667;DHT22;15074;50.940;5.282;2023-04-06T13:06:06;8.30;99.90
27667;DHT22;15074;50.940;5.282;2023-04-06T13:08:34;8.20;99.90
27667;DHT22;15074;50.940;5.282;2023-04-06T13:10:59;8.20;99.90
27667;DHT22;15074;50.940;5.282;2023-04-06T13:13:27;8.20;99.90
27667;DHT22;15074;50.940;5.282;2023-04-06T13:16:06;8.20;99.90
27667;DHT22;15074;50.940;5.282;2023-04-06T13:18:33;8.30;99.90
27667;DHT22;15074;50.940;5.282;2023-04-06T13:21:00;8.20;99.90
27667;DHT22;15074;50.940;5.282;2023-04-06T13:23:26;8.30;99.90
27667;DHT22;15074;50.940;5.282;2023-04-06T13:26:03;8.40;99.90
27667;DHT22;15074;50.940;5.282;2023-04-06T13:28:30;8.50;99.90
27667;DHT22;15074;50.940;5.282;2023-04-06T13:30:57;8.60;99.90
27667;DHT22;15074;50.940;5.282;2023-04-06T13:33:23;8.50;99.90
27667;DHT22;15074;50.940;5.282;2023-04-06T13:35:49;8.50;99.90
27667;DHT22;15074;50.940;5.282;2023-04-06T13:38:15;8.50;99.90
27667;DHT22;15074;50.940;5.282;2023-04-06T13:40:42;8.60;99.90
27667;DHT22;15074;50.940;5.282;2023-04-06T13:43:07;8.50;99.90
27667;DHT22;15074;50.940;5.282;2023-04-06T13:45:33;8.60;99.90
27667;DHT22;15074;50.940;5.282;2023-04-06T13:55:52;8.70;99.90
27667;DHT22;15074;50.940;5.282;2023-04-06T13:58:18;8.70;99.90
27667;DHT22;15074;50.940;5.282;2023-04-06T14:03:14;8.80;99.90
27667;DHT22;15074;50.940;5.282;2023-04-06T14:18:37;9.00;99.90
27667;DHT22;15074;50.940;5.282;2023-04-06T14:21:02;9.00;99.90
27667;DHT22;15074;50.940;5.282;2023-04-06T14:23:28;8.90;99.90
27667;DHT22;15074;50.940;5.282;2023-04-06T14:28:30;8.90;99.90
27667;DHT22;15074;50.940;5.282;2023-04-06T14:30:56;8.90;99.90
27667;DHT22;15074;50.940;5.282;2023-04-06T14:33:22;8.80;99.90
27667;DHT22;15074;50.940;5.282;2023-04-06T14:35:48;8.80;99.90
27667;DHT22;15074;50.940;5.282;2023-04-06T14:38:14;8.80;99.90
27667;DHT22;15074;50.940;5.282;2023-04-06T14:40:39;8.80;99.90
27667;DHT22;15074;50.940;5.282;2023-04-06T14:43:05;8.70;99.90
27667;DHT22;15074;50.940;5.282;2023-04-06T14:45:33;8.60;99.90
27667;DHT22;15074;50.940;5.282;2023-04-06T14:48:00;8.60;99.90
27667;DHT22;15074;50.940;5.282;2023-04-06T14:50:26;8.50;99.90
27667;DHT22;15074;50.940;5.282;2023-04-06T14:52:52;8.50;99.90
27667;DHT22;15074;50.940;5.282;2023-04-06T14:55:18;8.40;99.90
27667;DHT22;15074;50.940;5.282;2023-04-06T14:57:43;8.40;99.90
27667;DHT22;15074;50.940;5.282;2023-04-06T15:00:10;8.30;99.90
27667;DHT22;15074;50.940;5.282;2023-04-06T15:02:36;8.40;99.90
27667;DHT22;15074;50.940;5.282;2023-04-06T15:05:02;8.30;99.90
27667;DHT22;15074;50.940;5.282;2023-04-06T15:07:28;8.30;99.90
27667;DHT22;15074;50.940;5.282;2023-04-06T15:09:54;8.30;99.90
27667;DHT22;15074;50.940;5.282;2023-04-06T15:12:20;8.40;99.90
27667;DHT22;15074;50.940;5.282;2023-04-06T15:14:45;8.40;99.90
27667;DHT22;15074;50.940;5.282;2023-04-06T15:17:11;8.30;99.90
27667;DHT22;15074;50.940;5.282;2023-04-06T15:19:37;8.30;99.90
27667;DHT22;15074;50.940;5.282;2023-04-06T15:22:02;8.30;99.90
27667;DHT22;15074;50.940;5.282;2023-04-06T15:24:28;8.30;99.90
27667;DHT22;15074;50.940;5.282;2023-04-06T15:26:53;8.40;99.90
27667;DHT22;15074;50.940;5.282;2023-04-06T15:29:20;8.30;99.90
27667;DHT22;15074;50.940;5.282;2023-04-06T15:31:45;8.40;99.90
27667;DHT22;15074;50.940;5.282;2023-04-06T15:34:11;8.30;99.90
27667;DHT22;15074;50.940;5.282;2023-04-06T15:36:37;8.20;99.90
27667;DHT22;15074;50.940;5.282;2023-04-06T15:39:03;8.20;99.90
27667;DHT22;15074;50.940;5.282;2023-04-06T15:41:31;8.30;99.90
27667;DHT22;15074;50.940;5.282;2023-04-06T15:43:57;8.30;99.90
27667;DHT22;15074;50.940;5.282;2023-04-06T15:46:23;8.40;99.90
27667;DHT22;15074;50.940;5.282;2023-04-06T15:48:48;8.40;99.90
27667;DHT22;15074;50.940;5.282;2023-04-06T15:51:15;8.40;99.90
27667;DHT22;15074;50.940;5.282;2023-04-06T15:53:42;8.50;99.90
27667;DHT22;15074;50.940;5.282;2023-04-06T15:56:07;8.50;99.90
27667;DHT22;15074;50.940;5.282;2023-04-06T15:58:34;8.40;99.90
27667;DHT22;15074;50.940;5.282;2023-04-06T16:01:00;8.30;99.90
27667;DHT22;15074;50.940;5.282;2023-04-06T16:03:26;8.40;99.90
27667;DHT22;15074;50.940;5.282;2023-04-06T16:05:53;8.50;99.90
27667;DHT22;15074;50.940;5.282;2023-04-06T16:08:19;8.50;99.90
27667;DHT22;15074;50.940;5.282;2023-04-06T16:10:45;8.60;99.90